sensor_id;sensor_type;location;lat;lon;timestamp;P1;durP1;ratioP1;P2;durP2;ratioP2
4500;SDS011;2263;54.654;9.410;2023-04-24T00:01:53;8.90;;;8.00;;
4500;SDS011;2263;54.654;9.410;2023-04-24T00:04:21;9.60;;;8.30;;
4500;SDS011;2263;54.654;9.410;2023-04-24T00:06:53;8.67;;;8.00;;
4500;SDS011;2263;54.654;9.410;2023-04-24T00:09:24;8.23;;;7.57;;
4500;SDS011;2263;54.654;9.410;2023-04-24T00:11:52;8.83;;;6.60;;
4500;SDS011;2263;54.654;9.410;2023-04-24T00:14:20;9.37;;;7.73;;
4500;SDS011;2263;54.654;9.410;2023-04-24T00:16:48;7.20;;;6.60;;
4500;SDS011;2263;54.654;9.410;2023-04-24T00:19:15;8.00;;;7.40;;
4500;SDS011;2263;54.654;9.410;2023-04-24T00:21:43;11.07;;;7.80;;
4500;SDS011;2263;54.654;9.410;2023-04-24T00:24:10;7.63;;;7.03;;
4500;SDS011;2263;54.654;9.410;2023-04-24T00:26:38;7.23;;;6.63;;
4500;SDS011;2263;54.654;9.410;2023-04-24T00:29:06;8.10;;;7.43;;
4500;SDS011;2263;54.654;9.410;2023-04-24T00:31:35;7.87;;;7.00;;
4500;SDS011;2263;54.654;9.410;2023-04-24T00:34:03;8.30;;;7.40;;
4500;SDS011;2263;54.654;9.410;2023-04-24T00:36:32;7.53;;;6.83;;
4500;SDS011;2263;54.654;9.410;2023-04-24T00:38:59;8.20;;;7.60;;
4500;SDS011;2263;54.654;9.410;2023-04-24T00:41:27;6.83;;;6.23;;
4500;SDS011;2263;54.654;9.410;2023-04-24T00:43:55;7.00;;;6.40;;
4500;SDS011;2263;54.654;9.410;2023-04-24T00:46:22;7.10;;;6.60;;
4500;SDS011;2263;54.654;9.410;2023-04-24T00:48:50;7.30;;;6.60;;
4500;SDS011;2263;54.654;9.410;2023-04-24T00:51:18;7.47;;;6.70;;
4500;SDS011;2263;54.654;9.410;2023-04-24T00:53:46;7.60;;;7.00;;
4500;SDS011;2263;54.654;9.410;2023-04-24T00:56:14;6.83;;;6.30;;
4500;SDS011;2263;54.654;9.410;2023-04-24T00:58:42;7.43;;;6.80;;
4500;SDS011;2263;54.654;9.410;2023-04-24T01:01:11;7.20;;;6.50;;
4500;SDS011;2263;54.654;9.410;2023-04-24T01:03:39;7.37;;;6.80;;
4500;SDS011;2263;54.654;9.410;2023-04-24T01:06:07;7.70;;;7.00;;
4500;SDS011;2263;54.654;9.410;2023-04-24T01:08:37;8.07;;;7.33;;
4500;SDS011;2263;54.654;9.410;2023-04-24T01:11:06;7.80;;;7.20;;
4500;SDS011;2263;54.654;9.410;2023-04-24T01:13:34;7.83;;;7.13;;
4500;SDS011;2263;54.654;9.410;2023-04-24T01:16:02;7.73;;;7.10;;
4500;SDS011;2263;54.654;9.410;2023-04-24T01:18:29;8.30;;;7.60;;
4500;SDS011;2263;54.654;9.410;2023-04-24T01:20:57;8.77;;;7.50;;
4500;SDS011;2263;54.654;9.410;2023-04-24T01:23:26;9.07;;;7.70;;
4500;SDS011;2263;54.654;9.410;2023-04-24T01:25:54;10.07;;;7.63;;
4500;SDS011;2263;54.654;9.410;2023-04-24T01:28:22;8.37;;;7.77;;
4500;SDS011;2263;54.654;9.410;2023-04-24T01:30:50;7.50;;;7.00;;
4500;SDS011;2263;54.654;9.410;2023-04-24T01:33:17;7.80;;;7.20;;
4500;SDS011;2263;54.654;9.410;2023-04-24T01:35:48;7.00;;;6.40;;
4500;SDS011;2263;54.654;9.410;2023-04-24T01:38:16;7.97;;;7.17;;
4500;SDS011;2263;54.654;9.410;2023-04-24T01:40:43;7.80;;;7.17;;
4500;SDS011;2263;54.654;9.410;2023-04-24T01:43:12;9.17;;;8.37;;
4500;SDS011;2263;54.654;9.410;2023-04-24T01:45:40;8.10;;;7.30;;
4500;SDS011;2263;54.654;9.410;2023-04-24T01:48:07;11.13;;;7.87;;
4500;SDS011;2263;54.654;9.410;2023-04-24T01:50:35;8.20;;;7.50;;
4500;SDS011;2263;54.654;9.410;2023-04-24T01:53:03;8.03;;;7.43;;
4500;SDS011;2263;54.654;9.410;2023-04-24T01:55:31;8.47;;;7.67;;
4500;SDS011;2263;54.654;9.410;2023-04-24T01:57:59;8.70;;;7.77;;
4500;SDS011;2263;54.654;9.410;2023-04-24T02:00:28;8.50;;;7.60;;
4500;SDS011;2263;54.654;9.410;2023-04-24T02:02:56;7.57;;;6.90;;
4500;SDS011;2263;54.654;9.410;2023-04-24T02:05:24;8.70;;;8.00;;
4500;SDS011;2263;54.654;9.410;2023-04-24T02:07:51;9.40;;;8.57;;
4500;SDS011;2263;54.654;9.410;2023-04-24T02:10:19;9.90;;;8.40;;
4500;SDS011;2263;54.654;9.410;2023-04-24T02:12:47;8.10;;;7.50;;
4500;SDS011;2263;54.654;9.410;2023-04-24T02:15:14;8.70;;;7.90;;
4500;SDS011;2263;54.654;9.410;2023-04-24T02:17:42;8.93;;;8.07;;
4500;SDS011;2263;54.654;9.410;2023-04-24T02:20:09;8.80;;;8.10;;
4500;SDS011;2263;54.654;9.410;2023-04-24T02:22:37;11.00;;;8.03;;
4500;SDS011;2263;54.654;9.410;2023-04-24T02:25:05;10.27;;;9.13;;
4500;SDS011;2263;54.654;9.410;2023-04-24T02:27:33;11.63;;;8.20;;
4500;SDS011;2263;54.654;9.410;2023-04-24T02:30:00;8.53;;;7.73;;
4500;SDS011;2263;54.654;9.410;2023-04-24T02:32:30;9.67;;;8.90;;
4500;SDS011;2263;54.654;9.410;2023-04-24T02:34:59;8.80;;;7.90;;
4500;SDS011;2263;54.654;9.410;2023-04-24T02:37:26;9.20;;;8.33;;
4500;SDS011;2263;54.654;9.410;2023-04-24T02:39:54;9.23;;;8.33;;
4500;SDS011;2263;54.654;9.410;2023-04-24T02:42:21;9.33;;;8.60;;
4500;SDS011;2263;54.654;9.410;2023-04-24T02:44:49;10.23;;;9.43;;
4500;SDS011;2263;54.654;9.410;2023-04-24T02:47:18;9.90;;;9.00;;
4500;SDS011;2263;54.654;9.410;2023-04-24T02:49:45;8.63;;;7.70;;
4500;SDS011;2263;54.654;9.410;2023-04-24T02:52:13;9.93;;;8.13;;
4500;SDS011;2263;54.654;9.410;2023-04-24T02:54:41;9.80;;;8.90;;
4500;SDS011;2263;54.654;9.410;2023-04-24T02:57:09;7.80;;;7.20;;
4500;SDS011;2263;54.654;9.410;2023-04-24T02:59:37;8.60;;;7.87;;
4500;SDS011;2263;54.654;9.410;2023-04-24T03:02:04;8.57;;;7.87;;
4500;SDS011;2263;54.654;9.410;2023-04-24T03:04:32;8.90;;;8.10;;
4500;SDS011;2263;54.654;9.410;2023-04-24T03:07:00;9.27;;;8.37;;
4500;SDS011;2263;54.654;9.410;2023-04-24T03:09:27;9.73;;;8.17;;
4500;SDS011;2263;54.654;9.410;2023-04-24T03:11:55;9.40;;;8.57;;
4500;SDS011;2263;54.654;9.410;2023-04-24T03:14:23;9.33;;;8.63;;
4500;SDS011;2263;54.654;9.410;2023-04-24T03:16:51;10.87;;;9.87;;
4500;SDS011;2263;54.654;9.410;2023-04-24T03:19:19;9.20;;;8.37;;
4500;SDS011;2263;54.654;9.410;2023-04-24T03:21:46;8.70;;;8.00;;
4500;SDS011;2263;54.654;9.410;2023-04-24T03:24:14;10.07;;;9.07;;
4500;SDS011;2263;54.654;9.410;2023-04-24T03:26:41;9.03;;;8.23;;
4500;SDS011;2263;54.654;9.410;2023-04-24T03:29:09;10.20;;;9.10;;
4500;SDS011;2263;54.654;9.410;2023-04-24T03:31:37;9.07;;;8.23;;
4500;SDS011;2263;54.654;9.410;2023-04-24T03:34:04;10.60;;;8.90;;
4500;SDS011;2263;54.654;9.410;2023-04-24T03:36:32;9.53;;;8.80;;
4500;SDS011;2263;54.654;9.410;2023-04-24T03:38:59;9.33;;;8.60;;
4500;SDS011;2263;54.654;9.410;2023-04-24T03:41:27;9.30;;;8.43;;
4500;SDS011;2263;54.654;9.410;2023-04-24T03:43:55;8.77;;;8.10;;
4500;SDS011;2263;54.654;9.410;2023-04-24T03:46:23;11.93;;;8.90;;
4500;SDS011;2263;54.654;9.410;2023-04-24T03:48:51;10.57;;;9.67;;
4500;SDS011;2263;54.654;9.410;2023-04-24T03:51:18;10.53;;;9.63;;
4500;SDS011;2263;54.654;9.410;2023-04-24T03:53:46;14.13;;;9.23;;
4500;SDS011;2263;54.654;9.410;2023-04-24T03:56:14;9.80;;;8.87;;
4500;SDS011;2263;54.654;9.410;2023-04-24T03:58:41;9.50;;;8.27;;
4500;SDS011;2263;54.654;9.410;2023-04-24T04:01:09;8.23;;;7.63;;
4500;SDS011;2263;54.654;9.410;2023-04-24T04:03:38;7.40;;;6.83;;
4500;SDS011;2263;54.654;9.410;2023-04-24T04:06:06;9.03;;;8.20;;
4500;SDS011;2263;54.654;9.410;2023-04-24T04:08:33;8.03;;;7.40;;
4500;SDS011;2263;54.654;9.410;2023-04-24T04:11:01;8.53;;;7.73;;
4500;SDS011;2263;54.654;9.410;2023-04-24T04:13:31;9.30;;;8.57;;
4500;SDS011;2263;54.654;9.410;2023-04-24T04:15:58;8.07;;;7.47;;
4500;SDS011;2263;54.654;9.410;2023-04-24T04:18:26;8.50;;;7.80;;
4500;SDS011;2263;54.654;9.410;2023-04-24T04:20:54;10.60;;;9.70;;
4500;SDS011;2263;54.654;9.410;2023-04-24T04:23:21;7.33;;;6.80;;
4500;SDS011;2263;54.654;9.410;2023-04-24T04:25:49;9.70;;;8.80;;
4500;SDS011;2263;54.654;9.410;2023-04-24T04:28:18;11.10;;;7.67;;
4500;SDS011;2263;54.654;9.410;2023-04-24T04:30:46;7.50;;;7.00;;
4500;SDS011;2263;54.654;9.410;2023-04-24T04:33:14;7.63;;;7.10;;
4500;SDS011;2263;54.654;9.410;2023-04-24T04:35:43;7.93;;;7.43;;
4500;SDS011;2263;54.654;9.410;2023-04-24T04:38:10;8.63;;;7.93;;
4500;SDS011;2263;54.654;9.410;2023-04-24T04:40:38;6.20;;;5.80;;
4500;SDS011;2263;54.654;9.410;2023-04-24T04:43:07;5.87;;;5.57;;
4500;SDS011;2263;54.654;9.410;2023-04-24T04:45:34;6.90;;;6.40;;
4500;SDS011;2263;54.654;9.410;2023-04-24T04:48:02;5.63;;;5.33;;
4500;SDS011;2263;54.654;9.410;2023-04-24T04:50:30;5.53;;;5.23;;
4500;SDS011;2263;54.654;9.410;2023-04-24T04:52:57;4.57;;;4.27;;
4500;SDS011;2263;54.654;9.410;2023-04-24T04:55:25;4.80;;;4.50;;
4500;SDS011;2263;54.654;9.410;2023-04-24T04:57:53;4.70;;;4.40;;
4500;SDS011;2263;54.654;9.410;2023-04-24T05:00:28;7.33;;;4.07;;
4500;SDS011;2263;54.654;9.410;2023-04-24T05:03:01;4.30;;;3.97;;
4500;SDS011;2263;54.654;9.410;2023-04-24T05:05:46;3.80;;;3.50;;
4500;SDS011;2263;54.654;9.410;2023-04-24T05:08:14;3.93;;;3.50;;
4500;SDS011;2263;54.654;9.410;2023-04-24T05:10:52;3.17;;;2.97;;
4500;SDS011;2263;54.654;9.410;2023-04-24T05:13:20;3.13;;;2.93;;
4500;SDS011;2263;54.654;9.410;2023-04-24T05:16:05;4.30;;;3.90;;
4500;SDS011;2263;54.654;9.410;2023-04-24T05:18:33;3.37;;;3.07;;
4500;SDS011;2263;54.654;9.410;2023-04-24T05:21:00;3.13;;;2.93;;
4500;SDS011;2263;54.654;9.410;2023-04-24T05:23:28;3.27;;;3.07;;
4500;SDS011;2263;54.654;9.410;2023-04-24T05:25:56;3.20;;;3.00;;
4500;SDS011;2263;54.654;9.410;2023-04-24T05:28:24;3.33;;;3.13;;
4500;SDS011;2263;54.654;9.410;2023-04-24T05:30:55;2.77;;;2.57;;
4500;SDS011;2263;54.654;9.410;2023-04-24T05:33:22;3.77;;;3.57;;
4500;SDS011;2263;54.654;9.410;2023-04-24T05:35:50;3.10;;;2.80;;
4500;SDS011;2263;54.654;9.410;2023-04-24T05:38:17;3.40;;;3.20;;
4500;SDS011;2263;54.654;9.410;2023-04-24T05:40:46;3.23;;;3.03;;
4500;SDS011;2263;54.654;9.410;2023-04-24T05:43:13;3.10;;;2.90;;
4500;SDS011;2263;54.654;9.410;2023-04-24T05:45:41;3.27;;;3.07;;
4500;SDS011;2263;54.654;9.410;2023-04-24T05:48:08;3.37;;;3.17;;
4500;SDS011;2263;54.654;9.410;2023-04-24T05:50:36;4.13;;;3.90;;
4500;SDS011;2263;54.654;9.410;2023-04-24T05:53:04;3.57;;;3.33;;
4500;SDS011;2263;54.654;9.410;2023-04-24T05:55:33;3.60;;;3.40;;
4500;SDS011;2263;54.654;9.410;2023-04-24T05:58:01;4.50;;;4.30;;
4500;SDS011;2263;54.654;9.410;2023-04-24T06:00:29;3.73;;;3.53;;
4500;SDS011;2263;54.654;9.410;2023-04-24T06:02:56;3.63;;;3.33;;
4500;SDS011;2263;54.654;9.410;2023-04-24T06:05:25;4.00;;;3.80;;
4500;SDS011;2263;54.654;9.410;2023-04-24T06:07:53;4.33;;;4.13;;
4500;SDS011;2263;54.654;9.410;2023-04-24T06:10:20;4.33;;;4.13;;
4500;SDS011;2263;54.654;9.410;2023-04-24T06:12:48;6.10;;;4.13;;
4500;SDS011;2263;54.654;9.410;2023-04-24T06:15:16;4.20;;;4.00;;
4500;SDS011;2263;54.654;9.410;2023-04-24T06:17:43;4.43;;;4.23;;
4500;SDS011;2263;54.654;9.410;2023-04-24T06:20:11;3.87;;;3.67;;
4500;SDS011;2263;54.654;9.410;2023-04-24T06:22:39;4.50;;;4.20;;
4500;SDS011;2263;54.654;9.410;2023-04-24T06:25:06;4.90;;;4.63;;
4500;SDS011;2263;54.654;9.410;2023-04-24T06:27:34;4.90;;;4.70;;
4500;SDS011;2263;54.654;9.410;2023-04-24T06:30:02;4.83;;;4.63;;
4500;SDS011;2263;54.654;9.410;2023-04-24T06:32:30;4.50;;;4.20;;
4500;SDS011;2263;54.654;9.410;2023-04-24T06:34:57;4.53;;;4.33;;
4500;SDS011;2263;54.654;9.410;2023-04-24T06:37:25;4.70;;;4.43;;
4500;SDS011;2263;54.654;9.410;2023-04-24T06:39:53;5.80;;;4.23;;
4500;SDS011;2263;54.654;9.410;2023-04-24T06:42:20;3.83;;;3.63;;
4500;SDS011;2263;54.654;9.410;2023-04-24T06:44:48;5.43;;;5.13;;
4500;SDS011;2263;54.654;9.410;2023-04-24T06:47:16;5.17;;;4.87;;
4500;SDS011;2263;54.654;9.410;2023-04-24T06:49:44;5.00;;;4.70;;
4500;SDS011;2263;54.654;9.410;2023-04-24T06:52:11;5.30;;;4.87;;
4500;SDS011;2263;54.654;9.410;2023-04-24T06:54:41;5.27;;;5.07;;
4500;SDS011;2263;54.654;9.410;2023-04-24T06:57:08;4.97;;;4.67;;
4500;SDS011;2263;54.654;9.410;2023-04-24T06:59:37;5.50;;;5.20;;
4500;SDS011;2263;54.654;9.410;2023-04-24T07:02:05;5.43;;;4.93;;
4500;SDS011;2263;54.654;9.410;2023-04-24T07:04:32;6.80;;;6.30;;
4500;SDS011;2263;54.654;9.410;2023-04-24T07:07:00;6.40;;;6.00;;
4500;SDS011;2263;54.654;9.410;2023-04-24T07:09:29;7.10;;;6.50;;
4500;SDS011;2263;54.654;9.410;2023-04-24T07:11:56;6.33;;;5.93;;
4500;SDS011;2263;54.654;9.410;2023-04-24T07:14:24;6.63;;;6.13;;
4500;SDS011;2263;54.654;9.410;2023-04-24T07:16:52;8.10;;;7.37;;
4500;SDS011;2263;54.654;9.410;2023-04-24T07:19:19;7.53;;;7.03;;
4500;SDS011;2263;54.654;9.410;2023-04-24T07:21:47;6.80;;;6.30;;
4500;SDS011;2263;54.654;9.410;2023-04-24T07:24:14;5.87;;;5.50;;
4500;SDS011;2263;54.654;9.410;2023-04-24T07:26:42;6.20;;;5.83;;
4500;SDS011;2263;54.654;9.410;2023-04-24T07:29:10;6.63;;;6.30;;
4500;SDS011;2263;54.654;9.410;2023-04-24T07:31:37;5.30;;;4.90;;
4500;SDS011;2263;54.654;9.410;2023-04-24T07:34:05;6.17;;;5.77;;
4500;SDS011;2263;54.654;9.410;2023-04-24T07:36:33;6.03;;;5.63;;
4500;SDS011;2263;54.654;9.410;2023-04-24T07:39:00;6.00;;;5.50;;
4500;SDS011;2263;54.654;9.410;2023-04-24T07:41:28;7.30;;;6.80;;
4500;SDS011;2263;54.654;9.410;2023-04-24T07:43:56;5.60;;;5.30;;
4500;SDS011;2263;54.654;9.410;2023-04-24T07:46:25;6.20;;;5.70;;
4500;SDS011;2263;54.654;9.410;2023-04-24T07:48:56;4.87;;;4.63;;
4500;SDS011;2263;54.654;9.410;2023-04-24T07:51:39;4.60;;;4.33;;
4500;SDS011;2263;54.654;9.410;2023-04-24T07:54:07;6.90;;;6.20;;
4500;SDS011;2263;54.654;9.410;2023-04-24T07:56:34;3.63;;;3.43;;
4500;SDS011;2263;54.654;9.410;2023-04-24T07:59:06;5.07;;;4.67;;
4500;SDS011;2263;54.654;9.410;2023-04-24T08:01:33;5.07;;;4.70;;
4500;SDS011;2263;54.654;9.410;2023-04-24T08:04:01;5.13;;;4.83;;
4500;SDS011;2263;54.654;9.410;2023-04-24T08:06:29;4.20;;;4.00;;
4500;SDS011;2263;54.654;9.410;2023-04-24T08:08:57;4.40;;;4.10;;
4500;SDS011;2263;54.654;9.410;2023-04-24T08:11:26;3.83;;;3.63;;
4500;SDS011;2263;54.654;9.410;2023-04-24T08:13:54;4.43;;;4.10;;
4500;SDS011;2263;54.654;9.410;2023-04-24T08:16:21;4.00;;;3.60;;
4500;SDS011;2263;54.654;9.410;2023-04-24T08:18:51;4.07;;;3.77;;
4500;SDS011;2263;54.654;9.410;2023-04-24T08:21:19;3.83;;;3.53;;
4500;SDS011;2263;54.654;9.410;2023-04-24T08:23:47;3.80;;;3.33;;
4500;SDS011;2263;54.654;9.410;2023-04-24T08:26:15;6.23;;;5.10;;
4500;SDS011;2263;54.654;9.410;2023-04-24T08:28:43;3.70;;;3.50;;
4500;SDS011;2263;54.654;9.410;2023-04-24T08:31:11;4.50;;;4.30;;
4500;SDS011;2263;54.654;9.410;2023-04-24T08:33:38;5.30;;;3.90;;
4500;SDS011;2263;54.654;9.410;2023-04-24T08:36:07;4.37;;;4.17;;
4500;SDS011;2263;54.654;9.410;2023-04-24T08:38:35;4.33;;;4.03;;
4500;SDS011;2263;54.654;9.410;2023-04-24T08:41:02;4.97;;;4.67;;
4500;SDS011;2263;54.654;9.410;2023-04-24T08:43:32;5.10;;;4.70;;
4500;SDS011;2263;54.654;9.410;2023-04-24T08:46:01;3.93;;;3.63;;
4500;SDS011;2263;54.654;9.410;2023-04-24T08:48:33;4.23;;;3.93;;
4500;SDS011;2263;54.654;9.410;2023-04-24T08:51:01;4.63;;;4.23;;
4500;SDS011;2263;54.654;9.410;2023-04-24T08:53:31;4.00;;;3.70;;
4500;SDS011;2263;54.654;9.410;2023-04-24T08:55:59;4.67;;;4.27;;
4500;SDS011;2263;54.654;9.410;2023-04-24T08:58:28;5.30;;;4.80;;
4500;SDS011;2263;54.654;9.410;2023-04-24T09:00:57;4.67;;;4.37;;
4500;SDS011;2263;54.654;9.410;2023-04-24T09:03:27;5.73;;;5.23;;
4500;SDS011;2263;54.654;9.410;2023-04-24T09:05:55;4.60;;;4.20;;
4500;SDS011;2263;54.654;9.410;2023-04-24T09:08:25;5.03;;;4.70;;
4500;SDS011;2263;54.654;9.410;2023-04-24T09:10:54;4.77;;;4.43;;
4500;SDS011;2263;54.654;9.410;2023-04-24T09:13:24;4.77;;;4.47;;
4500;SDS011;2263;54.654;9.410;2023-04-24T09:15:53;5.30;;;5.00;;
4500;SDS011;2263;54.654;9.410;2023-04-24T09:18:21;5.77;;;5.27;;
4500;SDS011;2263;54.654;9.410;2023-04-24T09:21:01;4.63;;;4.33;;
4500;SDS011;2263;54.654;9.410;2023-04-24T09:23:30;4.40;;;4.10;;
4500;SDS011;2263;54.654;9.410;2023-04-24T09:25:59;6.10;;;4.77;;
4500;SDS011;2263;54.654;9.410;2023-04-24T09:28:32;4.70;;;4.33;;
4500;SDS011;2263;54.654;9.410;2023-04-24T09:31:23;5.20;;;4.80;;
4500;SDS011;2263;54.654;9.410;2023-04-24T09:34:00;4.63;;;4.23;;
4500;SDS011;2263;54.654;9.410;2023-04-24T09:36:34;4.53;;;4.23;;
4500;SDS011;2263;54.654;9.410;2023-04-24T09:39:10;4.27;;;4.07;;
4500;SDS011;2263;54.654;9.410;2023-04-24T09:41:48;4.17;;;3.93;;
4500;SDS011;2263;54.654;9.410;2023-04-24T09:44:27;4.87;;;4.47;;
4500;SDS011;2263;54.654;9.410;2023-04-24T09:46:56;3.93;;;3.73;;
4500;SDS011;2263;54.654;9.410;2023-04-24T09:49:29;4.10;;;3.90;;
4500;SDS011;2263;54.654;9.410;2023-04-24T09:54:31;4.17;;;3.80;;
4500;SDS011;2263;54.654;9.410;2023-04-24T09:56:59;3.97;;;3.77;;
4500;SDS011;2263;54.654;9.410;2023-04-24T09:59:27;4.20;;;3.90;;
4500;SDS011;2263;54.654;9.410;2023-04-24T10:01:56;6.20;;;3.97;;
4500;SDS011;2263;54.654;9.410;2023-04-24T10:04:26;3.17;;;2.90;;
4500;SDS011;2263;54.654;9.410;2023-04-24T10:06:56;3.70;;;3.40;;
4500;SDS011;2263;54.654;9.410;2023-04-24T10:09:24;5.63;;;3.27;;
4500;SDS011;2263;54.654;9.410;2023-04-24T10:11:53;3.37;;;3.17;;
4500;SDS011;2263;54.654;9.410;2023-04-24T10:14:22;3.10;;;2.80;;
4500;SDS011;2263;54.654;9.410;2023-04-24T10:16:54;3.97;;;3.67;;
4500;SDS011;2263;54.654;9.410;2023-04-24T10:19:25;5.20;;;3.23;;
4500;SDS011;2263;54.654;9.410;2023-04-24T10:21:53;4.53;;;3.77;;
4500;SDS011;2263;54.654;9.410;2023-04-24T10:24:22;3.57;;;3.37;;
4500;SDS011;2263;54.654;9.410;2023-04-24T10:26:49;3.90;;;3.70;;
4500;SDS011;2263;54.654;9.410;2023-04-24T10:29:18;4.17;;;3.87;;
4500;SDS011;2263;54.654;9.410;2023-04-24T10:31:46;4.70;;;4.30;;
4500;SDS011;2263;54.654;9.410;2023-04-24T10:34:15;3.40;;;3.20;;
4500;SDS011;2263;54.654;9.410;2023-04-24T10:36:46;3.70;;;3.50;;
4500;SDS011;2263;54.654;9.410;2023-04-24T10:39:18;3.73;;;3.53;;
4500;SDS011;2263;54.654;9.410;2023-04-24T10:41:53;4.17;;;3.97;;
4500;SDS011;2263;54.654;9.410;2023-04-24T10:44:24;4.17;;;3.77;;
4500;SDS011;2263;54.654;9.410;2023-04-24T10:46:55;4.20;;;3.90;;
4500;SDS011;2263;54.654;9.410;2023-04-24T10:49:30;3.83;;;3.63;;
4500;SDS011;2263;54.654;9.410;2023-04-24T10:52:02;4.20;;;3.90;;
4500;SDS011;2263;54.654;9.410;2023-04-24T10:54:34;3.77;;;3.47;;
4500;SDS011;2263;54.654;9.410;2023-04-24T10:57:28;4.80;;;4.00;;
4500;SDS011;2263;54.654;9.410;2023-04-24T11:02:57;3.30;;;3.00;;
4500;SDS011;2263;54.654;9.410;2023-04-24T11:05:48;3.00;;;2.80;;
4500;SDS011;2263;54.654;9.410;2023-04-24T11:08:30;3.10;;;2.90;;
4500;SDS011;2263;54.654;9.410;2023-04-24T11:19:17;3.73;;;3.43;;
4500;SDS011;2263;54.654;9.410;2023-04-24T11:21:47;3.10;;;2.90;;
4500;SDS011;2263;54.654;9.410;2023-04-24T11:24:31;3.40;;;3.07;;
4500;SDS011;2263;54.654;9.410;2023-04-24T11:27:20;3.30;;;3.00;;
4500;SDS011;2263;54.654;9.410;2023-04-24T11:32:26;2.60;;;2.40;;
4500;SDS011;2263;54.654;9.410;2023-04-24T11:35:00;3.90;;;3.60;;
4500;SDS011;2263;54.654;9.410;2023-04-24T11:37:44;3.90;;;3.60;;
4500;SDS011;2263;54.654;9.410;2023-04-24T11:40:33;5.17;;;4.83;;
4500;SDS011;2263;54.654;9.410;2023-04-24T11:43:01;3.93;;;3.73;;
4500;SDS011;2263;54.654;9.410;2023-04-24T11:45:33;4.07;;;3.87;;
4500;SDS011;2263;54.654;9.410;2023-04-24T11:48:02;3.80;;;3.60;;
4500;SDS011;2263;54.654;9.410;2023-04-24T11:50:30;4.37;;;4.07;;
4500;SDS011;2263;54.654;9.410;2023-04-24T11:52:58;3.93;;;3.73;;
4500;SDS011;2263;54.654;9.410;2023-04-24T11:55:27;3.57;;;3.37;;
4500;SDS011;2263;54.654;9.410;2023-04-24T11:57:57;3.80;;;3.60;;
4500;SDS011;2263;54.654;9.410;2023-04-24T12:00:29;3.60;;;3.30;;
4500;SDS011;2263;54.654;9.410;2023-04-24T12:03:08;4.97;;;4.57;;
4500;SDS011;2263;54.654;9.410;2023-04-24T12:05:38;4.13;;;3.83;;
4500;SDS011;2263;54.654;9.410;2023-04-24T12:08:06;4.83;;;3.20;;
4500;SDS011;2263;54.654;9.410;2023-04-24T12:10:34;4.27;;;4.07;;
4500;SDS011;2263;54.654;9.410;2023-04-24T12:13:02;3.77;;;3.57;;
4500;SDS011;2263;54.654;9.410;2023-04-24T12:15:29;4.10;;;3.90;;
4500;SDS011;2263;54.654;9.410;2023-04-24T12:17:58;4.90;;;4.60;;
4500;SDS011;2263;54.654;9.410;2023-04-24T12:20:27;5.27;;;4.87;;
4500;SDS011;2263;54.654;9.410;2023-04-24T12:22:56;5.67;;;5.27;;
4500;SDS011;2263;54.654;9.410;2023-04-24T12:25:26;6.73;;;5.47;;
4500;SDS011;2263;54.654;9.410;2023-04-24T12:30:32;5.70;;;5.30;;
4500;SDS011;2263;54.654;9.410;2023-04-24T12:33:02;5.33;;;5.00;;
4500;SDS011;2263;54.654;9.410;2023-04-24T12:35:31;5.90;;;5.50;;
4500;SDS011;2263;54.654;9.410;2023-04-24T12:38:10;5.87;;;5.47;;
4500;SDS011;2263;54.654;9.410;2023-04-24T12:40:40;5.27;;;4.97;;
4500;SDS011;2263;54.654;9.410;2023-04-24T12:43:15;4.13;;;3.83;;
4500;SDS011;2263;54.654;9.410;2023-04-24T12:45:44;4.33;;;4.03;;
4500;SDS011;2263;54.654;9.410;2023-04-24T12:48:12;4.37;;;4.07;;
4500;SDS011;2263;54.654;9.410;2023-04-24T12:50:41;4.07;;;3.70;;
4500;SDS011;2263;54.654;9.410;2023-04-24T12:53:12;4.03;;;3.73;;
4500;SDS011;2263;54.654;9.410;2023-04-24T12:55:40;4.13;;;3.63;;
4500;SDS011;2263;54.654;9.410;2023-04-24T12:58:08;6.60;;;4.17;;
4500;SDS011;2263;54.654;9.410;2023-04-24T13:00:35;4.17;;;3.87;;
4500;SDS011;2263;54.654;9.410;2023-04-24T13:03:04;4.37;;;3.97;;
4500;SDS011;2263;54.654;9.410;2023-04-24T13:05:32;4.60;;;4.20;;
4500;SDS011;2263;54.654;9.410;2023-04-24T13:07:59;5.50;;;4.53;;
4500;SDS011;2263;54.654;9.410;2023-04-24T13:10:27;4.17;;;3.97;;
4500;SDS011;2263;54.654;9.410;2023-04-24T13:12:54;4.80;;;4.40;;
4500;SDS011;2263;54.654;9.410;2023-04-24T13:15:22;4.13;;;3.73;;
4500;SDS011;2263;54.654;9.410;2023-04-24T13:17:50;5.17;;;4.70;;
4500;SDS011;2263;54.654;9.410;2023-04-24T13:20:17;4.20;;;3.70;;
4500;SDS011;2263;54.654;9.410;2023-04-24T13:22:45;4.40;;;4.00;;
4500;SDS011;2263;54.654;9.410;2023-04-24T13:25:13;4.00;;;3.73;;
4500;SDS011;2263;54.654;9.410;2023-04-24T13:27:43;10.10;;;4.03;;
4500;SDS011;2263;54.654;9.410;2023-04-24T13:30:11;7.63;;;4.60;;
4500;SDS011;2263;54.654;9.410;2023-04-24T13:32:39;4.83;;;4.23;;
4500;SDS011;2263;54.654;9.410;2023-04-24T13:35:07;4.47;;;4.00;;
4500;SDS011;2263;54.654;9.410;2023-04-24T13:37:35;4.97;;;4.57;;
4500;SDS011;2263;54.654;9.410;2023-04-24T13:40:03;4.10;;;3.80;;
4500;SDS011;2263;54.654;9.410;2023-04-24T13:42:32;4.63;;;4.23;;
4500;SDS011;2263;54.654;9.410;2023-04-24T13:45:00;5.23;;;4.47;;
4500;SDS011;2263;54.654;9.410;2023-04-24T13:47:48;5.17;;;4.77;;
4500;SDS011;2263;54.654;9.410;2023-04-24T13:50:17;5.17;;;4.87;;
4500;SDS011;2263;54.654;9.410;2023-04-24T13:52:45;6.30;;;5.90;;
4500;SDS011;2263;54.654;9.410;2023-04-24T13:55:12;6.30;;;5.90;;
4500;SDS011;2263;54.654;9.410;2023-04-24T13:57:40;6.97;;;6.37;;
4500;SDS011;2263;54.654;9.410;2023-04-24T14:00:08;5.03;;;4.80;;
4500;SDS011;2263;54.654;9.410;2023-04-24T14:02:37;5.10;;;4.70;;
4500;SDS011;2263;54.654;9.410;2023-04-24T14:05:05;4.63;;;4.33;;
4500;SDS011;2263;54.654;9.410;2023-04-24T14:07:33;5.60;;;5.20;;
4500;SDS011;2263;54.654;9.410;2023-04-24T14:10:01;4.27;;;4.00;;
4500;SDS011;2263;54.654;9.410;2023-04-24T14:12:28;4.40;;;4.00;;
4500;SDS011;2263;54.654;9.410;2023-04-24T14:14:56;4.40;;;3.83;;
4500;SDS011;2263;54.654;9.410;2023-04-24T14:17:23;3.97;;;3.67;;
4500;SDS011;2263;54.654;9.410;2023-04-24T14:19:51;5.00;;;3.87;;
4500;SDS011;2263;54.654;9.410;2023-04-24T14:22:22;3.93;;;3.53;;
4500;SDS011;2263;54.654;9.410;2023-04-24T14:24:50;4.80;;;3.60;;
4500;SDS011;2263;54.654;9.410;2023-04-24T14:27:18;4.27;;;4.07;;
4500;SDS011;2263;54.654;9.410;2023-04-24T14:29:45;4.37;;;4.17;;
4500;SDS011;2263;54.654;9.410;2023-04-24T14:32:13;4.63;;;3.50;;
4500;SDS011;2263;54.654;9.410;2023-04-24T14:34:41;5.50;;;4.50;;
4500;SDS011;2263;54.654;9.410;2023-04-24T14:37:09;4.33;;;4.03;;
4500;SDS011;2263;54.654;9.410;2023-04-24T14:39:36;4.30;;;3.97;;
4500;SDS011;2263;54.654;9.410;2023-04-24T14:42:04;7.30;;;4.03;;
4500;SDS011;2263;54.654;9.410;2023-04-24T14:44:32;4.30;;;3.90;;
4500;SDS011;2263;54.654;9.410;2023-04-24T14:47:00;5.03;;;4.43;;
4500;SDS011;2263;54.654;9.410;2023-04-24T14:49:28;6.30;;;5.70;;
4500;SDS011;2263;54.654;9.410;2023-04-24T14:51:55;6.63;;;5.23;;
4500;SDS011;2263;54.654;9.410;2023-04-24T14:54:23;5.17;;;4.67;;
4500;SDS011;2263;54.654;9.410;2023-04-24T14:56:51;8.37;;;5.30;;
4500;SDS011;2263;54.654;9.410;2023-04-24T14:59:19;9.07;;;5.90;;
4500;SDS011;2263;54.654;9.410;2023-04-24T15:01:47;7.13;;;5.67;;
4500;SDS011;2263;54.654;9.410;2023-04-24T15:04:17;8.77;;;6.80;;
4500;SDS011;2263;54.654;9.410;2023-04-24T15:06:45;12.23;;;6.73;;
4500;SDS011;2263;54.654;9.410;2023-04-24T15:09:12;13.23;;;6.50;;
4500;SDS011;2263;54.654;9.410;2023-04-24T15:11:40;14.00;;;7.30;;
4500;SDS011;2263;54.654;9.410;2023-04-24T15:14:08;8.30;;;6.67;;
4500;SDS011;2263;54.654;9.410;2023-04-24T15:16:37;10.00;;;8.13;;
4500;SDS011;2263;54.654;9.410;2023-04-24T15:19:05;6.67;;;5.80;;
4500;SDS011;2263;54.654;9.410;2023-04-24T15:21:33;12.43;;;8.40;;
4500;SDS011;2263;54.654;9.410;2023-04-24T15:24:00;10.03;;;7.23;;
4500;SDS011;2263;54.654;9.410;2023-04-24T15:26:28;13.03;;;6.90;;
4500;SDS011;2263;54.654;9.410;2023-04-24T15:28:56;9.97;;;7.63;;
4500;SDS011;2263;54.654;9.410;2023-04-24T15:31:23;8.53;;;6.77;;
4500;SDS011;2263;54.654;9.410;2023-04-24T15:33:51;10.97;;;7.60;;
4500;SDS011;2263;54.654;9.410;2023-04-24T15:36:19;12.00;;;8.27;;
4500;SDS011;2263;54.654;9.410;2023-04-24T15:38:47;8.27;;;7.23;;
4500;SDS011;2263;54.654;9.410;2023-04-24T15:41:16;15.00;;;8.73;;
4500;SDS011;2263;54.654;9.410;2023-04-24T15:43:43;11.63;;;8.53;;
4500;SDS011;2263;54.654;9.410;2023-04-24T15:46:11;15.17;;;8.07;;